1961 NOT_NAMED (1961001S13092)


IBTrACS version v04r00. Visit IBTrACS website for data access.
Please direct all questions to the IBTrACS Q and A forum

Storm track - Intensity - Wind Radii - Intensity Data - Source Data - All data

Summary Information

Storm ID 1961001S13092
Start Dec 31 18Z
End Jan 3 06Z
ATCF IDs SH091961
Track status Best track data.

Storm track plot

Map of storm track

Intensity plots

No Intensity information for this storm


Radial wind information

No radial wind information for this storm


Position and Intensity Table

BASIN ISO_TIME_________ NATURE LAT LON
degrees north degrees east
SI 1960-12-31 18:00:00 NR -12.50 91.50
SI 19:00:00 NR -12.55 91.44
SI 21:00:00 NR -12.65 91.34
SI 22:00:00 NR -12.70 91.31
SI 1961-01-01 00:00:00 NR -12.80 91.30
SI 01:00:00 NR -12.85 91.33
SI 03:00:00 NR -12.96 91.47
SI 04:00:00 NR -13.01 91.59
SI 06:00:00 NR -13.10 91.90
SI 07:00:00 NR -13.14 92.10
SI 09:00:00 NR -13.22 92.57
SI 10:00:00 NR -13.25 92.84
SI 12:00:00 NR -13.30 93.40
SI 15:00:00 NR -13.36 94.22
SI 16:00:00 NR -13.37 94.49
SI 18:00:00 NR -13.40 95.00
SI 21:00:00 NR -13.43 95.70
SI 22:00:00 NR -13.45 95.91
SI 1961-01-02 00:00:00 NR -13.50 96.30
SI 01:00:00 NR -13.53 96.49
SI 03:00:00 NR -13.62 96.82
SI 04:00:00 NR -13.67 96.97
SI 06:00:00 NR -13.80 97.20
SI 07:00:00 NR -13.87 97.29
SI 09:00:00 NR -14.02 97.41
SI 10:00:00 NR -14.11 97.45
SI 12:00:00 NR -14.30 97.50
SI 15:00:00 NR -14.64 97.57
SI 16:00:00 NR -14.76 97.58
SI 18:00:00 NR -15.00 97.60
SI 19:00:00 NR -15.10 97.62
SI 21:00:00 NR -15.30 97.65
SI 22:00:00 NR -15.40 97.67
SI 1961-01-03 00:00:00 NR -15.60 97.70
SI 01:00:00 NR -15.71 97.72
SI 03:00:00 NR -15.94 97.75
SI 06:00:00 NR -16.30 97.80

Source Information

Agency Information
USA bsh091961.txt
TOKYO
CMA
HKO
NEWDELHI
REUNION
BOM
NADI
WELLINGTON
DS824
TD9636
TD9635
NEUMANN
MLC

All available IBTrACS Data

SEASON BASIN SUBBASIN ISO_TIME_________ NATURE LAT LON DIST2LAND LANDFALL IFLAG USA AGENCY USA ATCF_ID USA LAT USA LON USA SSHS STORM SPEED STORM DIR
Year degrees north degrees east km km degrees north degrees east 1 kts degrees
1961 SI WA 1960-12-31 18:00:00 NR -12.50 91.50 1459 1459 O_____________ jtwc_sh SH091961 -12.50 91.50 -1 5 232
1961 SI WA 19:00:00 NR -12.55 91.44 1465 1465 P_____________ SH091961 -12.55 91.44 -1 4 226
1961 SI WA 21:00:00 NR -12.65 91.34 1481 1481 P_____________ SH091961 -12.65 91.34 -1 4 221
1961 SI WA 22:00:00 NR -12.70 91.31 1490 1490 P_____________ SH091961 -12.70 91.31 -1 3 196
1961 SI WA 1961-01-01 00:00:00 NR -12.80 91.30 1499 1499 O_____________ jtwc_sh SH091961 -12.80 91.30 -1 3 0
1961 SI WA 01:00:00 NR -12.85 91.33 1508 1496 P_____________ SH091961 -12.85 91.33 -1 5 133
1961 SI WA 03:00:00 NR -12.96 91.47 1505 1499 P_____________ SH091961 -12.96 91.47 -1 6 122
1961 SI WA 04:00:00 NR -13.01 91.59 1499 1491 P_____________ SH091961 -13.01 91.59 -1 9 109
1961 SI WA 06:00:00 NR -13.10 91.90 1491 1480 O_____________ jtwc_sh SH091961 -13.10 91.90 -1 10 105
1961 SI WA 07:00:00 NR -13.14 92.10 1480 1468 P_____________ SH091961 -13.14 92.10 -1 13 100
1961 SI WA 09:00:00 NR -13.22 92.57 1463 1453 P_____________ SH091961 -13.22 92.57 -1 15 98
1961 SI WA 10:00:00 NR -13.25 92.84 1453 1428 P_____________ SH091961 -13.25 92.84 -1 16 96
1961 SI WA 12:00:00 NR -13.30 93.40 1428 1377 O_____________ jtwc_sh SH091961 -13.30 93.40 -1 16 95
1961 SI WA 15:00:00 NR -13.36 94.22 1378 1364 P_____________ SH091961 -13.36 94.22 -1 16 94
1961 SI WA 16:00:00 NR -13.37 94.49 1357 1321 P_____________ SH091961 -13.37 94.49 -1 15 93
1961 SI WA 18:00:00 NR -13.40 95.00 1321 1272 O_____________ jtwc_sh SH091961 -13.40 95.00 -1 14 93
1961 SI WA 21:00:00 NR -13.43 95.70 1272 1258 P_____________ SH091961 -13.43 95.70 -1 13 93
1961 SI WA 22:00:00 NR -13.45 95.91 1264 1229 P_____________ SH091961 -13.45 95.91 -1 12 96
1961 SI WA 1961-01-02 00:00:00 NR -13.50 96.30 1229 1212 O_____________ jtwc_sh SH091961 -13.50 96.30 -1 11 98
1961 SI WA 01:00:00 NR -13.53 96.49 1212 1193 P_____________ SH091961 -13.53 96.49 -1 11 103
1961 SI WA 03:00:00 NR -13.62 96.82 1193 1185 P_____________ SH091961 -13.62 96.82 -1 10 107
1961 SI WA 04:00:00 NR -13.67 96.97 1184 1175 P_____________ SH091961 -13.67 96.97 -1 8 116
1961 SI WA 06:00:00 NR -13.80 97.20 1175 1166 O_____________ jtwc_sh SH091961 -13.80 97.20 -1 7 122
1961 SI WA 07:00:00 NR -13.87 97.29 1174 1166 P_____________ SH091961 -13.87 97.29 -1 6 137
1961 SI WA 09:00:00 NR -14.02 97.41 1173 1173 P_____________ SH091961 -14.02 97.41 -1 6 147
1961 SI WA 10:00:00 NR -14.11 97.45 1181 1173 P_____________ SH091961 -14.11 97.45 -1 6 163
1961 SI WA 12:00:00 NR -14.30 97.50 1189 1189 O_____________ jtwc_sh SH091961 -14.30 97.50 -1 7 169
1961 SI WA 15:00:00 NR -14.64 97.57 1205 1205 P_____________ SH091961 -14.64 97.57 -1 7 171
1961 SI WA 16:00:00 NR -14.76 97.58 1221 1221 P_____________ SH091961 -14.76 97.58 -1 7 173
1961 SI WA 18:00:00 NR -15.00 97.60 1237 1237 O_____________ jtwc_sh SH091961 -15.00 97.60 -1 7 172
1961 SI WA 19:00:00 NR -15.10 97.62 1245 1245 P_____________ SH091961 -15.10 97.62 -1 6 175
1961 SI WA 21:00:00 NR -15.30 97.65 1255 1255 P_____________ SH091961 -15.30 97.65 -1 6 174
1961 SI WA 22:00:00 NR -15.40 97.67 1263 1263 P_____________ SH091961 -15.40 97.67 -1 6 175
1961 SI WA 1961-01-03 00:00:00 NR -15.60 97.70 1280 1280 O_____________ jtwc_sh SH091961 -15.60 97.70 -1 6 172
1961 SI WA 01:00:00 NR -15.71 97.72 1289 1289 P_____________ SH091961 -15.71 97.72 -1 7 173
1961 SI WA 03:00:00 NR -15.94 97.75 1306 1306 P_____________ SH091961 -15.94 97.75 -1 7 172
1961 SI WA 06:00:00 NR -16.30 97.80 1334 O_____________ jtwc_sh SH091961 -16.30 97.80 -1 7 174